createdAt,value
2023-04-23T00:01:12.625Z,14.90
2023-04-23T00:03:43.208Z,15.70
2023-04-23T00:06:12.248Z,14.20
2023-04-23T00:08:41.209Z,13.10
2023-04-23T00:11:10.284Z,14.60
2023-04-23T00:13:38.842Z,14.60
2023-04-23T00:16:07.751Z,17.60
2023-04-23T00:18:36.177Z,18.30
2023-04-23T00:21:04.573Z,15.70
2023-04-23T00:23:33.725Z,17.70
2023-04-23T00:26:02.532Z,17.80
2023-04-23T00:28:31.072Z,15.70
2023-04-23T00:30:59.563Z,14.70
2023-04-23T00:33:28.375Z,14.10
2023-04-23T00:35:56.704Z,12.40
2023-04-23T00:38:26.757Z,11.10
2023-04-23T00:40:55.663Z,10.90
2023-04-23T00:43:24.412Z,11.70
2023-04-23T00:45:53.123Z,11.00
2023-04-23T00:48:21.672Z,11.90
2023-04-23T00:50:50.019Z,11.90
2023-04-23T00:53:19.071Z,13.10
2023-04-23T00:55:47.294Z,14.00
2023-04-23T00:58:15.917Z,15.20
2023-04-23T01:00:46.623Z,13.30
2023-04-23T01:03:18.772Z,14.80
2023-04-23T01:05:47.703Z,14.80
2023-04-23T01:08:16.915Z,13.80
2023-04-23T01:10:46.115Z,13.30
2023-04-23T01:13:14.662Z,14.10
2023-04-23T01:15:45.126Z,11.40
2023-04-23T01:18:14.960Z,12.00
2023-04-23T01:20:44.022Z,11.40
2023-04-23T01:23:13.057Z,12.60
2023-04-23T01:25:41.324Z,12.50
2023-04-23T01:28:09.669Z,10.80
2023-04-23T01:30:38.530Z,10.20
2023-04-23T01:33:06.898Z,11.60
2023-04-23T01:35:35.102Z,12.90
2023-04-23T01:38:04.045Z,8.70
2023-04-23T01:40:32.295Z,12.50
2023-04-23T01:43:00.797Z,11.20
2023-04-23T01:45:33.113Z,9.30
2023-04-23T01:48:01.468Z,10.40
2023-04-23T01:50:30.203Z,9.30
2023-04-23T01:52:58.807Z,11.90
2023-04-23T01:55:27.115Z,11.10
2023-04-23T01:57:55.983Z,44.30
2023-04-23T02:00:24.183Z,24.90
2023-04-23T02:02:55.306Z,17.10
2023-04-23T02:05:23.885Z,16.00
2023-04-23T02:07:52.348Z,14.60
2023-04-23T02:10:21.091Z,13.70
2023-04-23T02:12:49.405Z,14.90
2023-04-23T02:15:18.143Z,10.50
2023-04-23T02:17:46.485Z,10.40
2023-04-23T02:20:14.668Z,10.10
2023-04-23T02:22:43.052Z,10.20
2023-04-23T02:25:11.510Z,11.70
2023-04-23T02:27:40.039Z,11.30
2023-04-23T02:30:09.672Z,10.10
2023-04-23T02:32:38.278Z,9.20
2023-04-23T02:35:06.932Z,10.60
2023-04-23T02:37:37.250Z,11.30
2023-04-23T02:40:06.965Z,10.50
2023-04-23T02:42:35.337Z,10.20
2023-04-23T02:45:03.773Z,10.40
2023-04-23T02:47:32.173Z,11.80
2023-04-23T02:50:03.450Z,14.20
2023-04-23T02:52:33.899Z,12.20
2023-04-23T02:55:02.756Z,11.30
2023-04-23T02:57:31.217Z,10.70
2023-04-23T02:59:59.477Z,14.10
2023-04-23T03:02:33.388Z,17.20
2023-04-23T03:05:02.172Z,15.70
2023-04-23T03:07:30.634Z,11.40
2023-04-23T03:09:59.379Z,14.80
2023-04-23T03:12:27.955Z,9.70
2023-04-23T03:14:56.660Z,11.30
2023-04-23T03:17:26.215Z,11.50
2023-04-23T03:19:54.757Z,12.70
2023-04-23T03:22:23.750Z,12.60
2023-04-23T03:24:52.236Z,13.20
2023-04-23T03:27:21.517Z,14.20
2023-04-23T03:29:49.780Z,15.10
2023-04-23T03:32:18.072Z,13.90
2023-04-23T03:34:46.581Z,11.50
2023-04-23T03:37:15.049Z,11.60
2023-04-23T03:39:43.300Z,10.30
2023-04-23T03:42:12.689Z,9.40
2023-04-23T03:44:41.429Z,8.60
2023-04-23T03:47:09.915Z,11.50
2023-04-23T03:49:38.527Z,8.90
2023-04-23T03:52:07.221Z,9.30
2023-04-23T03:54:37.047Z,7.90
2023-04-23T03:57:14.756Z,6.90
2023-04-23T04:00:12.061Z,9.60
2023-04-23T04:02:43.909Z,7.80
2023-04-23T04:05:12.659Z,7.80
2023-04-23T04:07:41.426Z,7.20
2023-04-23T04:10:09.863Z,7.90
2023-04-23T04:12:41.353Z,6.10
2023-04-23T04:15:12.397Z,9.60
2023-04-23T04:17:40.813Z,10.20
2023-04-23T04:20:10.319Z,8.90
2023-04-23T04:22:39.746Z,8.00
2023-04-23T04:25:08.526Z,7.70
2023-04-23T04:27:39.348Z,7.00
2023-04-23T04:30:09.253Z,5.20
2023-04-23T04:32:39.209Z,5.30
2023-04-23T04:35:09.484Z,8.00
2023-04-23T04:37:37.905Z,5.70
2023-04-23T04:40:07.915Z,7.30
2023-04-23T04:42:36.476Z,6.40
2023-04-23T04:45:06.278Z,6.60
2023-04-23T04:47:34.862Z,7.30
2023-04-23T04:50:04.194Z,7.30
2023-04-23T04:52:33.752Z,5.60
2023-04-23T04:55:02.018Z,7.20
2023-04-23T04:57:30.734Z,7.00
2023-04-23T04:59:59.080Z,5.60
2023-04-23T05:02:27.597Z,8.60
2023-04-23T05:04:55.884Z,7.10
2023-04-23T05:07:24.050Z,7.40
2023-04-23T05:09:52.303Z,7.70
2023-04-23T05:12:20.614Z,5.60
2023-04-23T05:14:48.808Z,6.50
2023-04-23T05:17:17.085Z,7.30
2023-04-23T05:19:45.578Z,8.50
2023-04-23T05:22:13.981Z,6.90
2023-04-23T05:24:42.531Z,6.20
2023-04-23T05:27:11.415Z,7.50
2023-04-23T05:29:39.929Z,7.00
2023-04-23T05:32:08.524Z,8.10
2023-04-23T05:34:36.726Z,9.40
2023-04-23T05:37:05.002Z,7.40
2023-04-23T05:39:33.472Z,8.10
2023-04-23T05:42:02.458Z,9.00
2023-04-23T05:44:31.137Z,12.60
2023-04-23T05:46:59.752Z,13.00
2023-04-23T05:49:27.962Z,11.70
2023-04-23T05:51:56.171Z,13.80
2023-04-23T05:54:24.412Z,16.80
2023-04-23T05:56:54.567Z,19.10
2023-04-23T05:59:23.080Z,22.70
2023-04-23T06:01:51.367Z,17.20
2023-04-23T06:04:20.263Z,24.90
2023-04-23T06:06:48.790Z,25.50
2023-04-23T06:09:17.044Z,26.00
2023-04-23T06:11:45.260Z,27.10
2023-04-23T06:14:13.749Z,26.30
2023-04-23T06:16:42.011Z,29.50
2023-04-23T06:19:10.481Z,29.70
2023-04-23T06:21:38.967Z,27.30
2023-04-23T06:24:10.369Z,28.10
2023-04-23T06:26:38.562Z,25.00
2023-04-23T06:29:11.498Z,26.60
2023-04-23T06:31:52.175Z,26.60
2023-04-23T06:34:20.998Z,14.70
2023-04-23T06:36:51.013Z,13.30
2023-04-23T06:39:19.559Z,13.60
2023-04-23T06:41:47.813Z,14.40
2023-04-23T06:44:47.455Z,10.10
2023-04-23T06:47:15.783Z,7.90
2023-04-23T06:49:43.991Z,12.90
2023-04-23T06:52:12.786Z,11.10
2023-04-23T06:54:41.338Z,7.30
2023-04-23T06:57:09.900Z,7.20
2023-04-23T06:59:38.418Z,6.10
2023-04-23T07:02:07.210Z,7.10
2023-04-23T07:04:36.337Z,6.70
2023-04-23T07:07:04.633Z,7.70
2023-04-23T07:09:32.992Z,8.10
2023-04-23T07:12:02.501Z,7.00
2023-04-23T07:14:31.203Z,7.30
2023-04-23T07:16:59.619Z,4.50
2023-04-23T07:19:28.007Z,6.20
2023-04-23T07:21:56.240Z,4.90
2023-04-23T07:27:17.759Z,7.80
2023-04-23T07:29:46.272Z,6.70
2023-04-23T07:32:14.619Z,6.40
2023-04-23T07:37:11.921Z,6.10
2023-04-23T07:39:42.606Z,8.10
2023-04-23T07:42:12.284Z,4.90
2023-04-23T07:44:40.746Z,7.20
2023-04-23T07:47:09.140Z,4.60
2023-04-23T07:49:37.333Z,9.00
2023-04-23T07:52:05.612Z,9.40
2023-04-23T07:54:33.888Z,5.90
2023-04-23T07:57:03.256Z,7.90
2023-04-23T07:59:31.488Z,7.20
2023-04-23T08:01:59.881Z,10.80
2023-04-23T08:04:28.269Z,8.00
2023-04-23T08:06:56.852Z,9.10
2023-04-23T08:09:26.376Z,7.50
2023-04-23T08:11:55.393Z,6.80
2023-04-23T08:14:23.764Z,8.20
2023-04-23T08:16:52.337Z,7.60
2023-04-23T08:19:20.630Z,8.40
2023-04-23T08:21:49.198Z,6.50
2023-04-23T08:24:17.590Z,6.20
2023-04-23T08:26:46.856Z,7.10
2023-04-23T08:29:15.038Z,7.20
2023-04-23T08:31:43.297Z,7.60
2023-04-23T08:34:11.874Z,8.00
2023-04-23T08:36:40.387Z,5.90
2023-04-23T08:39:09.353Z,9.80
2023-04-23T08:41:43.056Z,8.30
2023-04-23T08:44:24.357Z,6.50
2023-04-23T08:46:54.070Z,5.80
2023-04-23T08:49:22.357Z,6.20
2023-04-23T08:51:53.143Z,8.40
2023-04-23T08:54:28.994Z,7.40
2023-04-23T08:57:01.154Z,6.30
2023-04-23T08:59:32.788Z,7.20
2023-04-23T09:02:01.954Z,5.20
2023-04-23T09:04:31.869Z,6.80
2023-04-23T09:07:00.551Z,6.70
2023-04-23T09:09:29.950Z,7.10
2023-04-23T09:11:58.694Z,7.80
2023-04-23T09:14:27.228Z,7.00
2023-04-23T09:16:55.743Z,4.60
2023-04-23T09:19:25.466Z,8.60
2023-04-23T09:21:53.829Z,7.20
2023-04-23T09:24:25.356Z,6.50
2023-04-23T09:26:53.643Z,8.00
2023-04-23T09:29:23.842Z,7.60
2023-04-23T09:31:56.266Z,7.10
2023-04-23T09:34:25.392Z,7.60
2023-04-23T09:36:53.921Z,5.90
2023-04-23T09:39:23.021Z,6.20
2023-04-23T09:41:54.502Z,8.40
2023-04-23T09:44:23.198Z,8.30
2023-04-23T09:46:51.639Z,6.00
2023-04-23T09:49:20.210Z,5.70
2023-04-23T09:51:49.185Z,4.30
2023-04-23T09:54:26.218Z,6.60
2023-04-23T09:56:57.474Z,5.70
2023-04-23T09:59:46.862Z,6.90
2023-04-23T10:02:17.169Z,6.70
2023-04-23T10:04:46.021Z,7.80
2023-04-23T10:07:19.512Z,5.80
2023-04-23T10:09:48.782Z,5.30
2023-04-23T10:12:36.966Z,6.80
2023-04-23T10:15:06.120Z,9.40
2023-04-23T10:17:37.975Z,9.30
2023-04-23T10:22:38.413Z,9.50
2023-04-23T10:25:10.153Z,8.70
2023-04-23T10:27:53.254Z,5.80
2023-04-23T10:30:23.345Z,7.70
2023-04-23T10:32:52.066Z,7.20
2023-04-23T10:35:20.536Z,5.80
2023-04-23T10:37:48.888Z,6.10
2023-04-23T10:40:35.442Z,7.60
2023-04-23T10:43:03.805Z,8.80
2023-04-23T10:45:33.258Z,7.90
2023-04-23T10:48:01.617Z,6.50
2023-04-23T10:50:31.329Z,5.80
2023-04-23T10:52:59.653Z,6.20
2023-04-23T10:55:29.636Z,7.30
2023-04-23T10:58:05.598Z,6.70
2023-04-23T11:00:46.472Z,8.00
2023-04-23T11:03:32.344Z,5.60
2023-04-23T11:06:04.519Z,7.30
2023-04-23T11:08:38.045Z,5.60
2023-04-23T11:11:09.376Z,5.80
2023-04-23T11:13:37.921Z,3.80
2023-04-23T11:16:16.128Z,8.50
2023-04-23T11:19:01.544Z,7.30
2023-04-23T11:21:55.142Z,8.10
2023-04-23T11:24:24.951Z,8.20
2023-04-23T11:26:56.314Z,5.60
2023-04-23T11:29:26.539Z,6.50
2023-04-23T11:32:02.596Z,7.70
2023-04-23T11:34:33.066Z,5.70
2023-04-23T11:37:02.564Z,5.30
2023-04-23T11:39:31.419Z,6.70
2023-04-23T11:42:03.359Z,5.60
2023-04-23T11:44:33.300Z,6.50
2023-04-23T11:47:02.839Z,5.20
2023-04-23T11:49:31.455Z,5.60
2023-04-23T11:52:02.834Z,9.90
2023-04-23T11:54:31.409Z,8.80
2023-04-23T11:57:00.310Z,7.90
2023-04-23T11:59:29.244Z,7.60
2023-04-23T12:01:59.807Z,6.20
2023-04-23T12:04:31.016Z,6.70
2023-04-23T12:06:59.801Z,7.20
2023-04-23T12:09:29.322Z,5.50
2023-04-23T12:11:58.795Z,5.80
2023-04-23T12:14:30.837Z,5.60
2023-04-23T12:16:59.649Z,6.20
2023-04-23T12:19:29.237Z,5.80
2023-04-23T12:21:58.217Z,4.40
2023-04-23T12:24:28.066Z,4.90
2023-04-23T12:26:58.697Z,5.60
2023-04-23T12:29:27.259Z,5.00
2023-04-23T12:31:58.733Z,5.50
2023-04-23T12:34:26.899Z,4.70
2023-04-23T12:36:56.071Z,5.10
2023-04-23T12:39:34.642Z,5.80
2023-04-23T12:42:07.143Z,4.30
2023-04-23T12:44:36.754Z,4.00
2023-04-23T12:47:09.730Z,4.30
2023-04-23T12:49:40.210Z,5.10
2023-04-23T12:52:10.021Z,5.00
2023-04-23T12:54:40.176Z,5.00
2023-04-23T12:57:14.462Z,5.20
2023-04-23T12:59:43.099Z,5.80
2023-04-23T13:02:11.709Z,4.60
2023-04-23T13:04:40.468Z,5.40
2023-04-23T13:07:09.699Z,3.60
2023-04-23T13:09:38.128Z,4.50
2023-04-23T13:12:06.413Z,4.50
2023-04-23T13:14:35.056Z,6.60
2023-04-23T13:17:03.869Z,4.60
2023-04-23T13:19:32.538Z,3.60
2023-04-23T13:22:03.774Z,5.10
2023-04-23T13:24:32.771Z,5.60
2023-04-23T13:27:02.011Z,6.10
2023-04-23T13:29:30.484Z,5.40
2023-04-23T13:31:58.824Z,4.60
2023-04-23T13:34:27.347Z,4.70
2023-04-23T13:36:55.587Z,5.30
2023-04-23T13:39:23.859Z,5.40
2023-04-23T13:42:06.173Z,5.30
2023-04-23T13:44:37.226Z,7.60
2023-04-23T13:47:05.624Z,7.10
2023-04-23T13:49:34.339Z,4.50
2023-04-23T13:52:07.071Z,5.60
2023-04-23T13:54:36.179Z,4.10
2023-04-23T13:57:04.642Z,6.00
2023-04-23T13:59:34.412Z,4.00
2023-04-23T14:02:02.701Z,4.80
2023-04-23T14:04:31.102Z,4.10
2023-04-23T14:06:59.388Z,4.20
2023-04-23T14:09:30.206Z,4.90
2023-04-23T14:11:58.935Z,5.10
2023-04-23T14:14:27.222Z,4.70
2023-04-23T14:16:55.442Z,5.50
2023-04-23T14:19:24.052Z,4.30
2023-04-23T14:21:52.292Z,4.00
2023-04-23T14:24:46.816Z,5.50
2023-04-23T14:27:15.824Z,6.00
2023-04-23T14:29:52.046Z,5.10
2023-04-23T14:32:20.586Z,5.10
2023-04-23T14:34:48.934Z,8.50
2023-04-23T14:37:17.851Z,8.00
2023-04-23T14:39:45.283Z,4.90
2023-04-23T14:42:12.561Z,4.50
2023-04-23T14:44:39.557Z,4.60
2023-04-23T14:47:09.172Z,5.90
2023-04-23T14:49:36.163Z,5.10
2023-04-23T14:52:04.378Z,5.10
2023-04-23T14:54:31.919Z,5.60
2023-04-23T14:56:58.892Z,40.70
2023-04-23T14:59:26.235Z,5.80
2023-04-23T15:01:53.432Z,5.80
2023-04-23T15:04:20.707Z,5.60
2023-04-23T15:06:47.954Z,6.30
2023-04-23T15:09:15.013Z,8.20
2023-04-23T15:11:43.570Z,9.10
2023-04-23T15:14:16.700Z,7.90
2023-04-23T15:16:48.248Z,5.90
2023-04-23T15:19:19.576Z,5.20
2023-04-23T15:21:47.617Z,4.40
2023-04-23T15:24:15.670Z,3.90
2023-04-23T15:26:43.124Z,5.30
2023-04-23T15:29:10.516Z,5.80
2023-04-23T15:31:38.345Z,7.10
2023-04-23T15:34:06.413Z,4.60
2023-04-23T15:36:35.192Z,5.20
2023-04-23T15:39:02.211Z,4.30
2023-04-23T15:41:29.213Z,4.20
2023-04-23T15:43:56.845Z,7.10
2023-04-23T15:46:23.958Z,6.20
2023-04-23T15:48:50.978Z,6.90
2023-04-23T15:51:18.125Z,6.80
2023-04-23T15:53:45.210Z,5.70
2023-04-23T15:56:12.214Z,7.00
2023-04-23T15:58:39.280Z,7.40
2023-04-23T16:01:08.673Z,6.70
2023-04-23T16:03:35.991Z,5.50
2023-04-23T16:06:04.529Z,7.80
2023-04-23T16:08:32.426Z,6.80
2023-04-23T16:10:59.583Z,6.80
2023-04-23T16:13:28.618Z,5.80
2023-04-23T16:15:55.711Z,6.50
2023-04-23T16:18:22.753Z,5.30
2023-04-23T16:20:49.772Z,11.60
2023-04-23T16:23:16.899Z,9.30
2023-04-23T16:25:44.426Z,7.80
2023-04-23T16:28:13.516Z,6.40
2023-04-23T16:30:40.765Z,9.80
2023-04-23T16:33:08.130Z,6.10
2023-04-23T16:35:35.210Z,7.10
2023-04-23T16:38:02.385Z,8.10
2023-04-23T16:40:29.527Z,7.70
2023-04-23T16:42:56.564Z,8.60
2023-04-23T16:45:23.712Z,8.30
2023-04-23T16:47:51.092Z,8.50
2023-04-23T16:50:18.289Z,8.30
2023-04-23T16:52:45.599Z,10.50
2023-04-23T16:55:12.582Z,12.80
2023-04-23T16:57:39.693Z,11.80
2023-04-23T17:00:08.203Z,14.20
2023-04-23T17:02:35.437Z,16.50
2023-04-23T17:05:02.746Z,14.50
2023-04-23T17:07:29.794Z,12.50
2023-04-23T17:09:56.896Z,13.50
2023-04-23T17:12:23.910Z,15.80
2023-04-23T17:14:50.974Z,11.20
2023-04-23T17:17:18.160Z,11.00
2023-04-23T17:19:46.068Z,9.80
2023-04-23T17:22:13.185Z,12.00
2023-04-23T17:24:40.487Z,13.60
2023-04-23T17:27:07.928Z,12.60
2023-04-23T17:29:34.910Z,8.40
2023-04-23T17:32:03.138Z,9.00
2023-04-23T17:34:30.467Z,7.70
2023-04-23T17:36:57.540Z,14.90
2023-04-23T17:39:25.783Z,23.30
2023-04-23T17:41:53.195Z,19.60
2023-04-23T17:44:20.244Z,12.30
2023-04-23T17:46:47.274Z,11.70
2023-04-23T17:49:14.447Z,12.10
2023-04-23T17:51:41.441Z,10.20
2023-04-23T17:54:08.549Z,9.20
2023-04-23T17:56:35.975Z,17.60
2023-04-23T17:59:03.031Z,24.20
2023-04-23T18:01:30.100Z,18.60
2023-04-23T18:03:57.282Z,19.30
2023-04-23T18:06:24.463Z,18.40
2023-04-23T18:08:51.562Z,28.20
2023-04-23T18:11:18.829Z,19.20
2023-04-23T18:13:45.876Z,16.40
2023-04-23T18:16:12.932Z,11.90
2023-04-23T18:18:40.160Z,12.50
2023-04-23T18:21:07.414Z,30.30
2023-04-23T18:23:36.215Z,26.00
2023-04-23T18:26:03.341Z,32.00
2023-04-23T18:28:30.380Z,31.00
2023-04-23T18:31:02.603Z,36.30
2023-04-23T18:33:42.551Z,43.60
2023-04-23T18:36:36.450Z,33.60
2023-04-23T18:39:04.143Z,27.90
2023-04-23T18:41:31.378Z,19.10
2023-04-23T18:44:00.460Z,20.40
2023-04-23T18:46:29.734Z,26.70
2023-04-23T18:49:06.329Z,27.90
2023-04-23T18:51:39.087Z,22.70
2023-04-23T18:54:06.182Z,16.70
2023-04-23T18:56:34.210Z,10.80
2023-04-23T18:59:01.257Z,13.10
2023-04-23T19:01:28.687Z,12.50
2023-04-23T19:03:57.537Z,12.10
2023-04-23T19:06:25.064Z,12.30
2023-04-23T19:08:52.167Z,13.40
2023-04-23T19:11:19.253Z,10.10
2023-04-23T19:13:46.314Z,12.80
2023-04-23T19:16:16.423Z,23.30
2023-04-23T19:18:43.966Z,44.30
2023-04-23T19:21:11.027Z,46.10
2023-04-23T19:23:38.169Z,40.80
2023-04-23T19:26:05.188Z,60.50
2023-04-23T19:28:32.192Z,53.20
2023-04-23T19:30:59.353Z,40.40
2023-04-23T19:33:27.207Z,33.00
2023-04-23T19:35:54.248Z,32.30
2023-04-23T19:38:21.482Z,18.90
2023-04-23T19:40:48.713Z,17.80
2023-04-23T19:44:48.248Z,14.90
2023-04-23T19:47:17.200Z,15.90
2023-04-23T19:49:45.358Z,15.50
2023-04-23T19:52:16.966Z,19.80
2023-04-23T19:54:49.099Z,18.50
2023-04-23T19:57:18.623Z,22.90
2023-04-23T19:59:46.362Z,24.00
2023-04-23T20:02:13.695Z,21.20
2023-04-23T20:04:41.823Z,18.70
2023-04-23T20:07:09.067Z,17.90
2023-04-23T20:09:36.086Z,9.10
2023-04-23T20:12:03.148Z,12.10
2023-04-23T20:14:30.171Z,11.90
2023-04-23T20:16:57.616Z,16.40
2023-04-23T20:19:27.912Z,15.90
2023-04-23T20:21:55.045Z,12.20
2023-04-23T20:24:22.071Z,8.50
2023-04-23T20:26:49.108Z,8.00
2023-04-23T20:29:16.098Z,7.40
2023-04-23T20:31:43.178Z,6.90
2023-04-23T20:34:11.245Z,8.20
2023-04-23T20:36:39.111Z,9.00
2023-04-23T20:39:06.170Z,9.50
2023-04-23T20:41:36.856Z,6.90
2023-04-23T20:44:05.280Z,6.80
2023-04-23T20:46:32.544Z,7.50
2023-04-23T20:49:01.060Z,8.10
2023-04-23T20:51:33.477Z,8.00
2023-04-23T20:54:00.641Z,7.40
2023-04-23T20:56:28.304Z,7.30
2023-04-23T20:58:57.652Z,9.80
2023-04-23T21:01:25.630Z,8.90
2023-04-23T21:03:54.125Z,10.10
2023-04-23T21:06:21.506Z,8.60
2023-04-23T21:08:48.615Z,10.70
2023-04-23T21:11:17.838Z,11.90
2023-04-23T21:13:48.051Z,11.60
2023-04-23T21:16:15.274Z,9.50
2023-04-23T21:18:42.528Z,10.80
2023-04-23T21:21:09.597Z,9.50
2023-04-23T21:23:36.602Z,9.50
2023-04-23T21:26:03.833Z,7.50
2023-04-23T21:28:31.974Z,8.80
2023-04-23T21:31:12.443Z,9.70
2023-04-23T21:33:39.564Z,10.20
2023-04-23T21:36:06.830Z,8.50
2023-04-23T21:38:33.868Z,9.80
2023-04-23T21:41:01.603Z,11.20
2023-04-23T21:43:29.646Z,11.70
2023-04-23T21:45:56.809Z,13.10
2023-04-23T21:48:24.190Z,11.90
2023-04-23T21:50:53.847Z,10.80
2023-04-23T21:53:22.791Z,12.80
2023-04-23T21:55:49.856Z,14.30
2023-04-23T21:58:18.037Z,11.30
2023-04-23T22:00:46.173Z,10.50
2023-04-23T22:03:15.856Z,13.50
2023-04-23T22:05:52.582Z,12.70
2023-04-23T22:08:19.748Z,9.70
2023-04-23T22:10:46.878Z,9.70
2023-04-23T22:13:14.617Z,12.60
2023-04-23T22:15:42.445Z,10.40
2023-04-23T22:18:09.450Z,19.60
2023-04-23T22:20:38.400Z,13.90
2023-04-23T22:23:05.372Z,12.50
2023-04-23T22:25:32.331Z,12.90
2023-04-23T22:27:59.295Z,10.70
2023-04-23T22:30:26.358Z,9.70
2023-04-23T22:32:53.410Z,8.50
2023-04-23T22:35:20.624Z,11.10
2023-04-23T22:37:47.734Z,10.10
2023-04-23T22:40:14.715Z,9.30
2023-04-23T22:42:41.684Z,11.30
2023-04-23T22:45:08.883Z,9.00
2023-04-23T22:47:35.958Z,9.60
2023-04-23T22:50:04.156Z,10.90
2023-04-23T22:52:31.779Z,13.10
2023-04-23T22:54:58.793Z,12.70
2023-04-23T22:57:25.869Z,11.70
2023-04-23T22:59:52.857Z,11.00
2023-04-23T23:02:20.052Z,12.00
2023-04-23T23:04:47.117Z,12.50
2023-04-23T23:07:14.987Z,9.20
2023-04-23T23:09:42.268Z,11.00
2023-04-23T23:12:09.469Z,24.10
2023-04-23T23:14:37.963Z,18.50
2023-04-23T23:17:06.378Z,12.00
2023-04-23T23:19:33.520Z,12.70
2023-04-23T23:22:00.602Z,9.50
2023-04-23T23:24:27.664Z,10.50
2023-04-23T23:26:54.667Z,9.90
2023-04-23T23:29:21.897Z,7.20
2023-04-23T23:31:49.297Z,7.00
2023-04-23T23:34:16.357Z,10.40
2023-04-23T23:36:45.280Z,14.40
2023-04-23T23:39:13.477Z,14.90
2023-04-23T23:41:40.458Z,13.70
2023-04-23T23:44:07.498Z,16.70
2023-04-23T23:46:34.505Z,10.90
2023-04-23T23:49:01.485Z,12.80
2023-04-23T23:51:29.292Z,10.50
2023-04-23T23:53:56.272Z,10.10
2023-04-23T23:56:23.325Z,9.00
2023-04-23T23:58:50.323Z,11.30
